Time;durP1;ratioP1;P1;durP2;ratioP2;P2;SDS_P1;SDS_P2;PMS_P1;PMS_P2;Temp;Humidity;BMP_temperature;BMP_pressure;BME280_temperature;BME280_humidity;BME280_pressure;Samples;Min_cycle;Max_cycle;Signal;HPM_P1;HPM_P2
2023/05/15 00:01:28;;;;;;;0.50;0.50;;;;;;;6.85;74.94;99993.72;5033402;28;20144;-80
2023/05/15 00:03:55;;;;;;;0.50;0.50;;;;;;;6.80;74.97;99986.25;5016979;28;20050;-79
2023/05/15 00:06:22;;;;;;;0.60;0.60;;;;;;;6.80;75.04;99986.25;5028172;28;20056;-81
2023/05/15 00:08:49;;;;;;;0.50;0.50;;;;;;;6.82;75.38;99983.41;5012967;28;20099;-81
2023/05/15 00:11:17;;;;;;;0.60;0.60;;;;;;;6.80;75.34;99983.56;5012772;28;20046;-81
2023/05/15 00:13:44;;;;;;;0.60;0.60;;;;;;;6.78;75.55;99984.78;5012761;28;20081;-82
2023/05/15 00:16:11;;;;;;;0.60;0.60;;;;;;;6.77;75.55;99981.28;5027736;28;20065;-79
2023/05/15 00:18:38;;;;;;;0.60;0.60;;;;;;;6.76;75.53;99986.84;5012592;28;20096;-81
2023/05/15 00:21:05;;;;;;;0.50;0.50;;;;;;;6.75;75.72;99983.34;5023152;28;20061;-81
2023/05/15 00:23:32;;;;;;;0.57;0.57;;;;;;;6.74;75.75;99989.75;5014611;28;20077;-80
2023/05/15 00:25:59;;;;;;;0.50;0.50;;;;;;;6.71;75.95;99988.28;5031831;28;20622;-81
2023/05/15 00:28:26;;;;;;;0.60;0.60;;;;;;;6.72;76.11;99986.41;5032086;28;20064;-80
2023/05/15 00:30:55;;;;;;;0.60;0.60;;;;;;;6.72;75.99;99987.25;5030863;28;20512;-82
2023/05/15 00:33:22;;;;;;;0.60;0.60;;;;;;;6.77;76.08;99993.88;5032212;28;20092;-79
2023/05/15 00:35:50;;;;;;;0.60;0.60;;;;;;;6.72;75.98;99992.59;5032894;28;20049;-81
2023/05/15 00:38:17;;;;;;;0.50;0.50;;;;;;;6.71;76.21;100003.56;5031344;28;20080;-80
2023/05/15 00:40:45;;;;;;;0.60;0.60;;;;;;;6.69;76.37;100002.91;5031409;28;20052;-80
2023/05/15 00:43:12;;;;;;;0.60;0.60;;;;;;;6.67;76.28;99999.59;5032116;28;20057;-80
2023/05/15 00:45:41;;;;;;;0.50;0.50;;;;;;;6.67;76.52;99994.22;5047211;28;20099;-80
2023/05/15 00:48:11;;;;;;;0.60;0.60;;;;;;;6.64;76.34;99991.94;5031541;28;20520;-81
2023/05/15 00:50:40;;;;;;;0.57;0.57;;;;;;;6.55;76.66;99987.72;5032146;28;20054;-81
2023/05/15 00:53:07;;;;;;;0.63;0.63;;;;;;;6.59;76.75;99997.06;5030261;28;20053;-79
2023/05/15 00:55:34;;;;;;;0.60;0.60;;;;;;;6.56;76.81;99994.72;5030633;28;20050;-80
2023/05/15 00:58:04;;;;;;;0.60;0.60;;;;;;;6.58;76.98;99995.38;5013878;28;20046;-80
2023/05/15 01:00:32;;;;;;;0.60;0.60;;;;;;;6.50;76.95;99991.81;5030488;28;20048;-80
2023/05/15 01:03:00;;;;;;;0.60;0.60;;;;;;;6.50;77.12;100002.53;5013788;28;20061;-80
2023/05/15 01:05:29;;;;;;;0.60;0.60;;;;;;;6.47;77.20;99996.75;5030171;28;20038;-81
2023/05/15 01:08:05;;;;;;;0.60;0.60;;;;;;;6.46;77.73;100005.81;5029842;28;20059;-81
2023/05/15 01:10:34;;;;;;;0.60;0.60;;;;;;;6.36;77.48;99992.75;5031472;28;20047;-80
2023/05/15 01:13:06;;;;;;;0.60;0.60;;;;;;;6.41;77.73;99995.66;5029647;28;20124;-81
2023/05/15 01:15:33;;;;;;;0.63;0.63;;;;;;;6.39;77.81;100000.38;5030146;28;20149;-79
2023/05/15 01:18:00;;;;;;;0.60;0.60;;;;;;;6.42;77.91;100000.00;5030860;28;20073;-80
2023/05/15 01:20:27;;;;;;;0.60;0.60;;;;;;;6.44;77.81;99994.44;5031035;28;20071;-79
2023/05/15 01:23:29;;;;;;;0.60;0.60;;;;;;;6.43;77.96;99990.94;5004056;28;20050;-81
2023/05/15 01:26:15;;;;;;;0.60;0.60;;;;;;;6.43;77.86;99992.78;4969672;28;20055;-80
2023/05/15 01:28:48;;;;;;;0.60;0.60;;;;;;;6.39;78.04;99986.97;4944983;28;20180;-80
2023/05/15 01:31:21;;;;;;;0.60;0.60;;;;;;;6.34;77.96;99988.59;4953744;28;20054;-78
2023/05/15 01:33:54;;;;;;;0.52;0.52;;;;;;;6.40;78.15;99988.63;4954198;28;20061;-80
2023/05/15 01:36:28;;;;;;;0.60;0.60;;;;;;;6.39;78.26;99995.03;4953819;28;20061;-80
2023/05/15 01:38:56;;;;;;;0.63;0.63;;;;;;;6.39;78.15;99992.34;4969727;28;20055;-79
2023/05/15 01:41:42;;;;;;;0.60;0.60;;;;;;;6.42;78.27;99991.94;4937300;28;20058;-80
2023/05/15 01:44:26;;;;;;;0.60;0.60;;;;;;;6.45;78.28;99999.59;4969458;28;20082;-80
2023/05/15 01:47:03;;;;;;;0.60;0.60;;;;;;;6.51;77.96;100006.91;4954100;28;20051;-80
2023/05/15 01:49:31;;;;;;;0.60;0.60;;;;;;;6.46;77.86;100001.28;4969630;28;20062;-80
2023/05/15 01:52:19;;;;;;;0.60;0.60;;;;;;;6.48;77.97;100001.06;4969272;28;20047;-80
2023/05/15 01:54:47;;;;;;;0.63;0.63;;;;;;;6.53;78.07;100013.91;4953649;28;20055;-80
2023/05/15 01:57:15;;;;;;;0.60;0.60;;;;;;;6.59;78.05;100013.16;4969284;28;20043;-79
2023/05/15 01:59:46;;;;;;;0.60;0.60;;;;;;;6.64;77.92;100014.22;4953505;28;20050;-80
2023/05/15 02:02:14;;;;;;;0.60;0.60;;;;;;;6.65;77.83;100017.72;4969824;28;20058;-81
2023/05/15 02:04:42;;;;;;;0.60;0.60;;;;;;;6.73;77.79;100026.47;5025999;28;20467;-79
2023/05/15 02:07:12;;;;;;;0.60;0.60;;;;;;;6.80;77.14;100020.31;4993608;28;20083;-80
2023/05/15 02:09:40;;;;;;;0.60;0.60;;;;;;;6.89;76.94;100016.47;5009695;28;20046;-82
2023/05/15 02:12:11;;;;;;;0.50;0.50;;;;;;;6.94;76.53;100022.91;5009593;28;20134;-80
2023/05/15 02:14:40;;;;;;;0.60;0.60;;;;;;;6.98;76.62;100017.13;5030619;28;20096;-81
2023/05/15 02:17:17;;;;;;;;;;;;;;;;;;;;;
2023/05/15 02:19:45;;;;;;;0.60;0.60;;;;;;;7.09;76.37;100020.13;4995691;28;20050;-79
2023/05/15 02:22:13;;;;;;;0.60;0.60;;;;;;;7.13;76.42;100024.03;5010504;28;20508;-81
2023/05/15 02:24:40;;;;;;;0.60;0.60;;;;;;;7.12;76.09;100017.03;5010782;28;20077;-82
2023/05/15 02:27:32;;;;;;;0.60;0.60;;;;;;;7.24;76.03;100022.69;5026713;28;20446;-80
2023/05/15 02:30:19;;;;;;;0.60;0.60;;;;;;;7.29;75.59;100019.38;5011844;28;20140;-81
2023/05/15 02:33:06;;;;;;;0.60;0.60;;;;;;;7.27;75.66;100016.91;5025395;28;20053;-81
2023/05/15 02:35:51;;;;;;;0.70;0.70;;;;;;;7.36;75.15;100022.94;5025831;28;20050;-80
2023/05/15 02:38:24;;;;;;;0.60;0.60;;;;;;;7.38;75.27;100024.41;4992555;28;20046;-79
2023/05/15 02:40:54;;;;;;;0.70;0.70;;;;;;;7.36;75.00;100014.88;5025707;28;20050;-79
2023/05/15 02:43:21;;;;;;;0.60;0.60;;;;;;;7.44;74.74;100019.25;5009167;28;20429;-80
2023/05/15 02:45:50;;;;;;;0.60;0.60;;;;;;;7.62;74.52;100024.91;5010492;28;20081;-80
2023/05/15 02:48:19;;;;;;;0.60;0.60;;;;;;;7.67;74.28;100013.56;5024816;28;20060;-80
2023/05/15 02:50:49;;;;;;;0.60;0.60;;;;;;;7.77;73.98;100022.94;5009164;28;20081;-79
2023/05/15 02:53:16;;;;;;;0.60;0.60;;;;;;;7.84;73.80;100024.81;5012593;28;20068;-79
2023/05/15 02:55:43;;;;;;;0.60;0.60;;;;;;;7.92;73.82;100029.97;5029626;28;20085;-79
2023/05/15 02:58:11;;;;;;;0.60;0.60;;;;;;;8.01;73.19;100023.41;5013752;28;20069;-80
2023/05/15 03:00:38;;;;;;;0.60;0.60;;;;;;;8.09;72.82;100023.22;5013250;28;20514;-80
2023/05/15 03:03:05;;;;;;;0.60;0.60;;;;;;;8.21;72.29;100026.97;5028869;28;20058;-81
2023/05/15 03:05:33;;;;;;;0.60;0.60;;;;;;;8.32;71.64;100030.91;5016129;28;20415;-79
2023/05/15 03:08:00;;;;;;;0.60;0.60;;;;;;;8.44;71.45;100028.47;5021666;28;20591;-80
2023/05/15 03:10:29;;;;;;;0.60;0.60;;;;;;;8.57;71.01;100033.88;5027156;28;20057;-80
2023/05/15 03:12:59;;;;;;;0.60;0.60;;;;;;;8.64;70.65;100021.25;5029055;28;20132;-78
2023/05/15 03:15:26;;;;;;;0.60;0.60;;;;;;;8.78;70.15;100034.69;5033646;28;20144;-81
2023/05/15 03:17:53;;;;;;;0.60;0.60;;;;;;;8.83;69.80;100032.19;5032228;28;20041;-77
2023/05/15 03:20:21;;;;;;;0.50;0.50;;;;;;;9.02;69.42;100035.94;5033072;28;20081;-77
2023/05/15 03:22:48;;;;;;;0.60;0.60;;;;;;;9.12;68.83;100030.94;5033304;28;20519;-80
2023/05/15 03:25:15;;;;;;;0.60;0.60;;;;;;;9.22;68.39;100031.34;5031734;28;20076;-77
2023/05/15 03:27:45;;;;;;;0.52;0.52;;;;;;;9.37;68.01;100043.72;5033140;28;20041;-79
2023/05/15 03:30:15;;;;;;;0.60;0.60;;;;;;;9.52;67.59;100039.75;5031554;28;20128;-78
2023/05/15 03:32:42;;;;;;;0.60;0.60;;;;;;;9.68;67.03;100051.09;5032165;28;20187;-77
2023/05/15 03:35:09;;;;;;;0.50;0.50;;;;;;;9.81;66.39;100045.66;5032878;28;20065;-80
2023/05/15 03:37:37;;;;;;;0.60;0.60;;;;;;;9.97;65.75;100045.16;5031837;28;20049;-78
2023/05/15 03:40:07;;;;;;;0.55;0.55;;;;;;;10.12;64.90;100039.47;5031775;28;20084;-81
2023/05/15 03:42:37;;;;;;;0.60;0.60;;;;;;;10.25;63.92;100046.66;5032951;28;20057;-81
2023/05/15 03:45:04;;;;;;;0.50;0.50;;;;;;;10.30;63.35;100038.75;5031595;28;20538;-81
2023/05/15 03:47:31;;;;;;;0.50;0.50;;;;;;;10.38;62.82;100048.47;5031758;28;20045;-80
2023/05/15 03:49:59;;;;;;;0.50;0.50;;;;;;;10.46;63.00;100042.84;5032905;28;20092;-82
2023/05/15 03:52:26;;;;;;;0.50;0.50;;;;;;;10.56;62.18;100045.06;5032995;28;20419;-81
2023/05/15 03:54:55;;;;;;;0.50;0.50;;;;;;;10.63;62.00;100037.72;5044186;28;20691;-82
2023/05/15 03:57:24;;;;;;;0.60;0.60;;;;;;;10.76;61.41;100045.72;5052294;28;20125;-81
2023/05/15 03:59:53;;;;;;;0.50;0.50;;;;;;;10.82;61.36;100042.13;5051996;28;20580;-81
2023/05/15 04:02:21;;;;;;;0.50;0.50;;;;;;;10.93;61.10;100047.84;5050749;28;20139;-81
2023/05/15 04:04:48;;;;;;;0.50;0.50;;;;;;;11.04;60.34;100047.97;5030726;28;20057;-81
2023/05/15 04:07:18;;;;;;;0.60;0.60;;;;;;;11.06;60.19;100040.47;5031921;28;20711;-81
2023/05/15 04:09:47;;;;;;;0.50;0.50;;;;;;;11.24;59.26;100053.19;5031281;28;20057;-81
2023/05/15 04:12:15;;;;;;;0.50;0.50;;;;;;;11.30;58.88;100056.84;5031664;28;20049;-81
2023/05/15 04:14:42;;;;;;;0.60;0.60;;;;;;;11.31;58.65;100049.56;5031992;28;20064;-81
2023/05/15 04:17:09;;;;;;;0.50;0.50;;;;;;;11.37;58.55;100049.50;5046343;28;20508;-81
2023/05/15 04:19:39;;;;;;;0.60;0.60;;;;;;;11.44;58.21;100050.28;5031224;28;20076;-81
2023/05/15 04:22:08;;;;;;;0.60;0.60;;;;;;;11.49;57.50;100054.97;5031236;28;20140;-81
2023/05/15 04:24:36;;;;;;;0.55;0.55;;;;;;;11.55;57.75;100056.81;5031772;28;20068;-81
2023/05/15 04:27:03;;;;;;;0.50;0.50;;;;;;;11.58;57.61;100044.72;5027111;28;20128;-81
2023/05/15 04:29:30;;;;;;;0.50;0.50;;;;;;;11.68;57.65;100061.22;5017093;28;20477;-81
2023/05/15 04:31:57;;;;;;;0.50;0.50;;;;;;;11.74;57.13;100060.31;5019412;28;20058;-80
2023/05/15 04:34:28;;;;;;;0.60;0.60;;;;;;;11.76;56.90;100052.00;5017680;28;20420;-81
2023/05/15 04:36:59;;;;;;;0.50;0.50;;;;;;;11.84;56.61;100055.19;5011581;28;20046;-81
2023/05/15 04:39:25;;;;;;;0.50;0.50;;;;;;;11.89;56.44;100049.97;5021805;28;20053;-79
2023/05/15 04:41:53;;;;;;;0.50;0.50;;;;;;;11.93;56.29;100039.53;5027978;28;20046;-80
2023/05/15 04:44:22;;;;;;;0.50;0.50;;;;;;;12.05;56.20;100051.25;5031031;28;20053;-80
2023/05/15 04:46:55;;;;;;;0.60;0.60;;;;;;;12.21;56.16;100054.34;5031066;28;20115;-81
2023/05/15 04:49:22;;;;;;;0.50;0.50;;;;;;;12.30;55.51;100056.47;5030932;28;20755;-79
2023/05/15 04:51:51;;;;;;;0.50;0.50;;;;;;;12.39;54.75;100057.00;5030835;28;20054;-81
2023/05/15 04:54:18;;;;;;;0.60;0.60;;;;;;;12.31;54.67;100047.31;5029138;28;20535;-81
2023/05/15 04:56:48;;;;;;;0.50;0.50;;;;;;;12.46;54.56;100062.31;5018093;28;20052;-80
2023/05/15 04:59:24;;;;;;;0.50;0.50;;;;;;;12.60;53.46;100057.53;5020044;28;20073;-81
2023/05/15 05:01:52;;;;;;;0.50;0.50;;;;;;;12.63;53.27;100059.75;5020313;28;20061;-81
2023/05/15 05:04:22;;;;;;;0.50;0.50;;;;;;;12.74;52.81;100056.25;5025099;28;20176;-81
2023/05/15 05:06:51;;;;;;;0.50;0.50;;;;;;;12.85;52.46;100060.84;5013413;28;20053;-82
2023/05/15 05:09:38;;;;;;;0.50;0.50;;;;;;;12.94;52.12;100047.81;5020184;28;20072;-81
2023/05/15 05:12:09;;;;;;;0.50;0.50;;;;;;;13.03;51.75;100057.22;5029859;28;20045;-82
2023/05/15 05:14:40;;;;;;;0.50;0.50;;;;;;;13.05;51.27;100051.56;5028585;28;20593;-82
2023/05/15 05:17:10;;;;;;;0.50;0.50;;;;;;;13.04;50.90;100050.75;5030576;28;20167;-81
2023/05/15 05:19:45;;;;;;;0.50;0.50;;;;;;;13.01;50.78;100041.22;4997305;28;20570;-82
2023/05/15 05:22:22;;;;;;;0.50;0.50;;;;;;;13.09;50.71;100047.31;5009317;28;20062;-82
2023/05/15 05:24:52;;;;;;;0.50;0.50;;;;;;;13.21;50.13;100059.00;5029660;28;20049;-82
2023/05/15 05:27:20;;;;;;;0.50;0.50;;;;;;;13.23;49.82;100051.44;4995692;28;20056;-83
2023/05/15 05:29:47;;;;;;;0.50;0.50;;;;;;;13.23;50.23;100041.44;5030338;28;20059;-83
2023/05/15 05:32:14;;;;;;;0.50;0.50;;;;;;;13.43;49.10;100051.94;5029391;28;20049;-82
2023/05/15 05:34:41;;;;;;;0.50;0.50;;;;;;;13.43;49.15;100038.38;5029750;28;20152;-83
2023/05/15 05:37:14;;;;;;;0.50;0.50;;;;;;;13.56;48.73;100052.75;5026075;28;20077;-82
2023/05/15 05:39:41;;;;;;;0.52;0.52;;;;;;;13.54;48.48;100047.56;5029651;28;20059;-83
2023/05/15 05:42:08;;;;;;;0.50;0.50;;;;;;;13.65;48.47;100051.31;5030353;28;20424;-81
2023/05/15 05:44:35;;;;;;;0.40;0.40;;;;;;;13.76;48.15;100049.66;5030466;28;20045;-83
2023/05/15 05:47:03;;;;;;;0.40;0.40;;;;;;;13.86;47.89;100045.25;5026810;28;20092;-82
2023/05/15 05:49:30;;;;;;;0.50;0.50;;;;;;;13.94;47.40;100049.47;5021867;28;20487;-80
2023/05/15 05:52:06;;;;;;;0.50;0.50;;;;;;;14.02;47.57;100048.25;5028411;28;20053;-84
2023/05/15 05:54:33;;;;;;;0.41;0.41;;;;;;;14.14;47.42;100040.06;4664768;28;10001341;-81
2023/05/15 05:57:00;;;;;;;0.50;0.50;;;;;;;14.14;47.34;100023.78;5026236;28;20053;-83
2023/05/15 05:59:30;;;;;;;0.50;0.50;;;;;;;14.14;47.44;100021.06;5020880;28;20064;-80
2023/05/15 06:01:58;;;;;;;0.50;0.50;;;;;;;14.25;47.26;100026.44;4986590;28;20056;-81
2023/05/15 06:04:25;;;;;;;0.50;0.50;;;;;;;14.41;47.04;100034.88;5020978;28;20049;-81
2023/05/15 06:06:53;;;;;;;0.50;0.50;;;;;;;14.55;46.54;100038.13;5022207;28;20060;-81
2023/05/15 06:09:20;;;;;;;0.50;0.50;;;;;;;14.50;46.63;100022.53;5023314;28;20794;-81
2023/05/15 06:11:47;;;;;;;0.43;0.43;;;;;;;14.33;46.77;100033.38;5025123;28;20080;-80
2023/05/15 06:14:15;;;;;;;0.50;0.50;;;;;;;14.35;46.61;100035.84;5018983;28;20505;-81
2023/05/15 06:16:48;;;;;;;0.50;0.50;;;;;;;14.56;46.51;100048.75;5042278;28;20140;-83
2023/05/15 06:19:16;;;;;;;0.40;0.40;;;;;;;14.60;46.02;100028.16;5026362;28;20053;-81
2023/05/15 06:21:53;;;;;;;0.50;0.50;;;;;;;14.56;45.82;100037.88;5035799;28;20056;-79
2023/05/15 06:24:25;;;;;;;0.50;0.50;;;;;;;14.77;44.99;100039.03;5026858;28;20139;-80
2023/05/15 06:26:53;;;;;;;0.50;0.50;;;;;;;14.76;45.35;100036.56;5029485;28;20053;-81
2023/05/15 06:29:20;;;;;;;0.40;0.40;;;;;;;14.69;45.09;100028.59;5069780;28;20048;-82
2023/05/15 06:31:47;;;;;;;0.40;0.40;;;;;;;14.47;45.55;100029.28;5063220;28;20942;-82
2023/05/15 06:34:15;;;;;;;0.40;0.40;;;;;;;14.24;45.85;100018.53;5010471;28;20084;-83
2023/05/15 06:36:44;;;;;;;0.40;0.40;;;;;;;14.23;46.30;100027.75;5045112;28;20118;-82
2023/05/15 06:39:11;;;;;;;0.40;0.40;;;;;;;14.23;46.29;100036.72;5044207;28;20558;-82
2023/05/15 06:41:41;;;;;;;0.40;0.40;;;;;;;14.24;46.34;100035.66;5042667;28;20516;-83
2023/05/15 06:44:17;;;;;;;0.50;0.50;;;;;;;14.49;45.89;100037.19;5045207;28;20215;-80
2023/05/15 06:46:45;;;;;;;0.60;0.60;;;;;;;15.11;44.36;100028.97;5045534;28;20531;-81
2023/05/15 06:49:15;;;;;;;0.50;0.50;;;;;;;15.78;41.89;100028.00;5029319;28;20083;-82
2023/05/15 06:51:42;;;;;;;0.40;0.40;;;;;;;15.76;41.98;100019.25;5030033;28;20691;-82
2023/05/15 06:54:09;;;;;;;0.40;0.40;;;;;;;15.94;41.57;100026.25;5027994;28;20060;-82
2023/05/15 06:56:42;;;;;;;0.50;0.50;;;;;;;15.87;40.72;100022.91;5026660;28;20115;-82
2023/05/15 06:59:09;;;;;;;0.47;0.47;;;;;;;15.91;40.68;100026.78;5015736;28;20050;-81
2023/05/15 07:01:37;;;;;;;0.40;0.40;;;;;;;15.90;40.78;100032.47;5024111;28;20057;-80
2023/05/15 07:04:04;;;;;;;0.40;0.40;;;;;;;15.70;41.44;100022.16;5025046;28;20053;-81
2023/05/15 07:06:32;;;;;;;0.40;0.40;;;;;;;15.64;41.63;100032.13;5023520;28;20057;-80
2023/05/15 07:09:07;;;;;;;0.40;0.40;;;;;;;15.66;41.39;100018.28;5010073;28;20050;-82
2023/05/15 07:11:37;;;;;;;0.40;0.40;;;;;;;15.67;41.53;100022.63;5015638;28;20090;-82
2023/05/15 07:14:05;;;;;;;0.40;0.40;;;;;;;15.89;41.41;100023.47;5029700;28;20049;-82
2023/05/15 07:16:33;;;;;;;0.40;0.40;;;;;;;15.73;41.56;100025.22;5035711;28;20132;-80
2023/05/15 07:19:03;;;;;;;0.50;0.50;;;;;;;15.82;41.41;100018.25;5011148;28;20156;-81
2023/05/15 07:21:33;;;;;;;0.40;0.40;;;;;;;15.88;41.31;100027.28;5028727;28;20046;-81
2023/05/15 07:24:05;;;;;;;0.50;0.50;;;;;;;15.81;41.13;100026.66;5028234;28;20049;-82
2023/05/15 07:26:36;;;;;;;0.50;0.50;;;;;;;15.84;41.83;100025.34;5027928;28;20045;-82
2023/05/15 07:29:23;;;;;;;0.40;0.40;;;;;;;15.82;41.70;100017.41;5014964;28;20050;-81
2023/05/15 07:31:54;;;;;;;0.40;0.40;;;;;;;15.73;41.56;100029.84;5029683;28;20103;-82
2023/05/15 07:34:22;;;;;;;0.40;0.40;;;;;;;15.44;42.07;100021.81;5029904;28;20658;-82
2023/05/15 07:36:50;;;;;;;0.50;0.50;;;;;;;15.71;42.33;100026.53;5029431;28;20394;-81
2023/05/15 07:39:20;;;;;;;0.40;0.40;;;;;;;15.69;42.03;100007.72;5028082;28;20060;-82
2023/05/15 07:41:50;;;;;;;0.60;0.60;;;;;;;15.70;41.65;100014.84;5011720;28;20046;-82
2023/05/15 07:44:18;;;;;;;0.70;0.70;;;;;;;16.46;40.72;100019.47;5029512;28;20085;-81
2023/05/15 07:46:50;;;;;;;0.60;0.60;;;;;;;16.96;39.91;99982.78;5028012;28;20050;-82
2023/05/15 07:49:17;;;;;;;0.60;0.60;;;;;;;17.56;38.70;100002.47;5029032;28;20053;-80
2023/05/15 07:51:45;;;;;;;0.60;0.60;;;;;;;17.86;38.24;99981.88;5028758;28;20053;-83
2023/05/15 07:54:12;;;;;;;0.55;0.55;;;;;;;17.84;37.50;99987.59;5028300;28;20041;-82
2023/05/15 07:56:40;;;;;;;0.50;0.50;;;;;;;17.99;37.75;99989.56;5024362;28;20107;-80
2023/05/15 07:59:11;;;;;;;0.40;0.40;;;;;;;17.30;38.50;99982.44;5032303;28;20057;-81
2023/05/15 08:01:43;;;;;;;0.50;0.50;;;;;;;17.18;38.76;99982.66;5032902;28;20056;-81
2023/05/15 08:04:11;;;;;;;0.60;0.60;;;;;;;17.58;38.00;99992.13;5032349;28;20056;-81
2023/05/15 08:06:43;;;;;;;0.60;0.60;;;;;;;18.09;37.26;99992.31;5032313;28;20069;-82
2023/05/15 08:09:22;;;;;;;;;;;;;;;18.10;37.49;100007.59;5031454;28;20518;-82
2023/05/15 08:11:52;;;;;;;0.40;0.40;;;;;;;17.52;38.08;100012.28;5032537;28;19979;-81
2023/05/15 08:14:23;;;;;;;0.70;0.70;;;;;;;17.73;37.88;100003.09;5031075;28;20045;-82
2023/05/15 08:16:53;;;;;;;0.50;0.50;;;;;;;17.83;37.70;99988.69;5032178;28;20053;-83
2023/05/15 08:19:21;;;;;;;0.45;0.45;;;;;;;18.16;37.66;100009.25;4998154;28;20046;-82
2023/05/15 08:21:50;;;;;;;0.40;0.40;;;;;;;17.68;37.64;99981.25;5036936;28;20041;-81
2023/05/15 08:24:17;;;;;;;0.50;0.50;;;;;;;17.82;37.27;99978.84;5051889;28;20045;-80
2023/05/15 08:26:44;;;;;;;0.40;0.40;;;;;;;17.46;37.10;99986.88;5067445;28;20057;-81
2023/05/15 08:29:15;;;;;;;0.40;0.40;;;;;;;17.01;38.41;99985.53;5067148;28;20426;-81
2023/05/15 08:31:45;;;;;;;0.40;0.40;;;;;;;17.02;38.48;99989.94;5052011;28;20103;-82
2023/05/15 08:34:13;;;;;;;0.40;0.40;;;;;;;17.25;37.81;99974.25;5067115;28;20048;-81
2023/05/15 08:36:40;;;;;;;0.47;0.47;;;;;;;17.41;37.62;99972.41;5049698;28;20065;-81
2023/05/15 08:39:08;;;;;;;0.60;0.60;;;;;;;18.51;36.43;99985.81;5051889;28;20419;-81
2023/05/15 08:42:07;;;;;;;0.60;0.60;;;;;;;19.50;34.83;99990.84;5052042;28;20090;-81
2023/05/15 08:44:35;;;;;;;0.60;0.60;;;;;;;20.18;33.60;99990.25;5023711;28;20045;-79
2023/05/15 08:47:07;;;;;;;0.50;0.50;;;;;;;20.43;32.57;99981.00;5049882;28;20053;-81
2023/05/15 08:50:03;;;;;;;0.40;0.40;;;;;;;19.43;34.01;99979.38;5049751;28;20064;-82
2023/05/15 08:52:33;;;;;;;0.65;0.65;;;;;;;19.13;34.18;99969.34;5039478;28;20120;-82
2023/05/15 08:55:02;;;;;;;0.40;0.40;;;;;;;18.99;34.30;99975.41;5030888;28;20053;-81
2023/05/15 08:57:32;;;;;;;0.70;0.70;;;;;;;19.34;33.86;99981.03;5031038;28;20115;-80
2023/05/15 09:00:00;;;;;;;0.65;0.65;;;;;;;20.48;32.05;99978.22;5010634;28;20565;-80
2023/05/15 09:02:32;;;;;;;0.80;0.80;;;;;;;21.26;31.56;99954.47;5028082;28;20050;-82
2023/05/15 09:05:01;;;;;;;0.70;0.70;;;;;;;22.02;30.51;99949.91;5026455;28;20504;-81
2023/05/15 09:07:31;;;;;;;0.80;0.80;;;;;;;22.41;30.21;99962.53;5042466;28;20056;-82
2023/05/15 09:09:58;;;;;;;0.70;0.70;;;;;;;23.02;29.96;99959.88;5026237;28;20162;-81
2023/05/15 09:12:29;;;;;;;0.60;0.60;;;;;;;23.52;28.04;99948.94;5025795;28;20049;-84
2023/05/15 09:15:16;;;;;;;0.60;0.60;;;;;;;22.26;28.76;99936.13;5023985;28;20061;-81
2023/05/15 09:18:11;;;;;;;0.70;0.70;;;;;;;23.35;28.38;99944.88;5027143;28;20049;-82
2023/05/15 09:20:41;;;;;;;0.70;0.70;;;;;;;23.63;27.18;99942.09;5009511;28;20543;-82
2023/05/15 09:23:25;;;;;;;0.70;0.70;;;;;;;23.70;26.91;99942.50;5024647;28;20061;-80
2023/05/15 09:26:00;;;;;;;0.70;0.70;;;;;;;24.34;26.10;99939.66;5043485;28;20055;-81
2023/05/15 09:28:34;;;;;;;0.47;0.47;;;;;;;24.07;26.71;99924.03;5022752;28;20072;-80
2023/05/15 09:31:03;;;;;;;0.70;0.70;;;;;;;24.10;26.76;99923.41;5011744;28;20058;-83
2023/05/15 09:33:37;;;;;;;0.70;0.70;;;;;;;24.63;26.46;99927.38;5014981;28;20504;-82
2023/05/15 09:36:08;;;;;;;0.30;0.30;;;;;;;23.08;27.80;99920.09;5006356;28;20053;-82
2023/05/15 09:38:41;;;;;;;0.30;0.30;;;;;;;21.55;29.58;99918.72;5025316;28;20142;-81
2023/05/15 09:41:10;;;;;;;0.70;0.70;;;;;;;21.57;30.36;99919.25;5007060;28;20480;-82
2023/05/15 09:43:40;;;;;;;0.32;0.32;;;;;;;21.97;29.22;99921.69;5025745;28;20049;-82
2023/05/15 09:46:08;;;;;;;0.30;0.30;;;;;;;20.83;30.48;99915.97;5026594;28;20050;-82
2023/05/15 09:48:35;;;;;;;0.30;0.30;;;;;;;20.28;31.24;99934.53;5025216;28;20491;-82
2023/05/15 09:51:14;;;;;;;0.30;0.30;;;;;;;19.90;31.37;99913.19;4993339;28;20049;-82
2023/05/15 09:53:41;;;;;;;0.40;0.40;;;;;;;19.86;31.57;99925.78;5026057;28;20144;-81
2023/05/15 09:56:15;;;;;;;0.32;0.32;;;;;;;19.81;31.72;99916.81;5026447;28;20060;-82
2023/05/15 09:58:53;;;;;;;0.40;0.40;;;;;;;19.68;32.26;99912.78;5025320;28;20448;-81
2023/05/15 10:01:24;;;;;;;0.63;0.63;;;;;;;20.71;30.93;99913.63;5024694;28;20107;-83
2023/05/15 10:04:05;;;;;;;0.30;0.30;;;;;;;20.51;30.99;99902.84;5011174;28;20515;-82
2023/05/15 10:06:36;;;;;;;0.50;0.50;;;;;;;20.44;31.07;99894.94;5006381;28;20049;-80
2023/05/15 10:09:05;;;;;;;0.40;0.40;;;;;;;20.81;30.84;99915.44;5025457;28;20061;-83
2023/05/15 10:11:35;;;;;;;0.40;0.40;;;;;;;20.23;31.44;99904.41;5024916;28;20738;-82
2023/05/15 10:14:24;;;;;;;0.55;0.55;;;;;;;20.05;31.80;99914.16;5005139;28;20088;-82
2023/05/15 10:16:56;;;;;;;0.70;0.70;;;;;;;21.72;29.10;99904.47;5020294;28;20058;-82
2023/05/15 10:19:26;;;;;;;0.50;0.50;;;;;;;22.36;28.86;99893.03;4987984;28;20061;-81
2023/05/15 10:21:54;;;;;;;0.80;0.80;;;;;;;22.52;28.13;99897.19;4987952;28;20046;-82
2023/05/15 10:24:29;;;;;;;0.70;0.70;;;;;;;24.40;26.41;99901.72;5017427;28;20751;-81
2023/05/15 10:26:57;;;;;;;0.70;0.70;;;;;;;25.45;24.63;99881.75;4996962;28;20505;-80
2023/05/15 10:29:28;;;;;;;0.50;0.50;;;;;;;26.02;23.85;99896.59;5010612;28;20132;-80
2023/05/15 10:31:59;;;;;;;0.30;0.30;;;;;;;24.72;25.24;99899.84;5011783;28;20054;-78
2023/05/15 10:34:28;;;;;;;0.30;0.30;;;;;;;23.73;26.16;99900.56;5024229;28;20049;-83
2023/05/15 10:36:56;;;;;;;0.50;0.50;;;;;;;23.41;26.32;99884.19;5024280;28;20053;-84
2023/05/15 10:39:26;;;;;;;0.70;0.70;;;;;;;24.93;24.69;99903.66;5013979;28;20042;-82
2023/05/15 10:41:55;;;;;;;0.30;0.30;;;;;;;24.84;24.79;99886.25;5016080;28;20069;-84
2023/05/15 10:44:23;;;;;;;0.30;0.30;;;;;;;24.25;25.37;99880.03;5017454;28;20041;-82
2023/05/15 10:46:50;;;;;;;0.30;0.30;;;;;;;22.88;26.79;99893.75;5013801;28;20060;-84
2023/05/15 10:49:17;;;;;;;0.30;0.30;;;;;;;22.02;27.71;99886.69;5011570;28;20161;-82
2023/05/15 10:51:48;;;;;;;0.30;0.30;;;;;;;22.19;27.42;99893.59;5013744;28;20119;-83
2023/05/15 10:54:18;;;;;;;0.30;0.30;;;;;;;21.73;27.93;99875.06;5013800;28;20586;-82
2023/05/15 10:56:45;;;;;;;0.70;0.70;;;;;;;23.73;25.43;99875.78;4998360;28;20147;-81
2023/05/15 10:59:12;;;;;;;0.70;0.70;;;;;;;25.08;24.18;99869.28;5012085;28;20057;-82
2023/05/15 11:01:40;;;;;;;0.68;0.68;;;;;;;26.19;23.16;99882.75;5012614;28;20050;-84
2023/05/15 11:04:19;;;;;;;0.60;0.60;;;;;;;27.35;22.23;99878.16;5015229;28;20053;-82
2023/05/15 11:06:48;;;;;;;0.60;0.60;;;;;;;27.31;21.08;99857.78;5006809;28;20457;-84
2023/05/15 11:09:46;;;;;;;0.60;0.60;;;;;;;27.68;21.07;99875.47;5005762;28;20057;-80
2023/05/15 11:13:01;;;;;;;0.60;0.60;;;;;;;28.21;20.99;99870.28;4993621;28;20050;-82
2023/05/15 11:15:46;;;;;;;0.60;0.60;;;;;;;28.87;20.20;99878.56;5026059;28;21829;-81
2023/05/15 11:18:15;;;;;;;0.50;0.50;;;;;;;29.42;20.05;99850.50;5015840;28;20050;-82
2023/05/15 11:20:54;;;;;;;0.50;0.50;;;;;;;29.63;19.77;99870.63;5021715;28;20100;-82
2023/05/15 11:23:27;;;;;;;0.50;0.50;;;;;;;29.56;19.54;99856.50;5020411;28;20054;-82
2023/05/15 11:26:02;;;;;;;0.50;0.50;;;;;;;29.84;19.13;99847.41;5021869;28;20505;-83
2023/05/15 11:28:41;;;;;;;0.40;0.40;;;;;;;29.89;18.97;99861.06;5001833;28;20165;-83
2023/05/15 11:31:14;;;;;;;0.47;0.47;;;;;;;29.32;19.49;99865.69;5019205;28;20053;-82
2023/05/15 11:33:50;;;;;;;0.50;0.50;;;;;;;29.73;19.31;99855.47;5012579;28;20141;-83
2023/05/15 11:36:23;;;;;;;0.30;0.30;;;;;;;29.57;19.46;99856.16;5006889;28;20060;-83
2023/05/15 11:38:52;;;;;;;0.20;0.20;;;;;;;27.19;21.16;99859.34;5031666;28;20049;-83
2023/05/15 11:41:22;;;;;;;0.50;0.50;;;;;;;25.98;22.67;99854.13;5031150;28;20061;-82
2023/05/15 11:43:56;;;;;;;0.50;0.50;;;;;;;27.66;21.33;99853.59;5016176;28;20540;-83
2023/05/15 11:46:26;;;;;;;0.52;0.52;;;;;;;28.52;19.94;99842.88;5030866;28;20053;-83
2023/05/15 11:48:58;;;;;;;0.50;0.50;;;;;;;29.62;19.48;99855.09;5047338;28;20107;-84